Time;durP1;ratioP1;P1;durP2;ratioP2;P2;SDS_P1;SDS_P2;PMS_P1;PMS_P2;Temp;Humidity;BMP_temperature;BMP_pressure;BME280_temperature;BME280_humidity;BME280_pressure;Samples;Min_cycle;Max_cycle;Signal;HPM_P1;HPM_P2
2023/06/29 00:01:04;;;;;;;6.97;4.68;;;17.80;99.90;;;;;;6246796;23;20016;-85
2023/06/29 00:03:33;;;;;;;8.38;5.10;;;17.80;99.90;;;;;;6246522;23;20170;-87
2023/06/29 00:06:01;;;;;;;6.55;4.70;;;17.80;99.90;;;;;;6246737;23;20347;-85
2023/06/29 00:08:28;;;;;;;10.02;5.05;;;17.80;99.90;;;;;;6247069;23;20378;-86
2023/06/29 00:10:55;;;;;;;8.63;4.30;;;17.80;99.90;;;;;;6246928;23;20028;-87
2023/06/29 00:13:23;;;;;;;6.45;5.10;;;17.80;99.90;;;;;;6219579;23;20110;-86
2023/06/29 00:15:49;;;;;;;8.05;5.35;;;17.80;99.90;;;;;;6219447;23;20016;-86
2023/06/29 00:18:15;;;;;;;9.00;6.03;;;17.80;99.90;;;;;;6246753;23;20355;-86
2023/06/29 00:20:44;;;;;;;9.35;5.40;;;17.80;99.90;;;;;;6219910;23;20429;-86
2023/06/29 00:23:10;;;;;;;8.60;5.90;;;17.80;99.90;;;;;;6246336;23;20026;-85
2023/06/29 00:25:38;;;;;;;10.95;6.30;;;17.80;99.90;;;;;;6246841;23;20051;-86
2023/06/29 00:28:04;;;;;;;9.65;5.55;;;17.80;99.90;;;;;;6219752;23;20016;-86
2023/06/29 00:30:30;;;;;;;9.27;6.05;;;17.80;99.90;;;;;;6218932;23;20024;-85
2023/06/29 00:32:56;;;;;;;9.30;5.30;;;17.80;99.90;;;;;;6246251;23;20062;-85
2023/06/29 00:35:22;;;;;;;8.38;5.53;;;17.80;99.90;;;;;;6219597;23;20024;-86
2023/06/29 00:37:48;;;;;;;9.30;5.05;;;17.70;99.90;;;;;;6219423;23;20039;-86
2023/06/29 00:40:13;;;;;;;7.18;4.95;;;17.80;99.90;;;;;;6219521;23;20020;-85
2023/06/29 00:42:39;;;;;;;10.77;6.75;;;17.80;99.90;;;;;;6219256;23;20082;-86
2023/06/29 00:45:05;;;;;;;9.40;6.43;;;17.80;99.90;;;;;;6219257;23;20017;-85
2023/06/29 00:47:33;;;;;;;9.63;6.65;;;17.80;99.90;;;;;;6245768;23;20054;-84
2023/06/29 00:50:00;;;;;;;9.98;6.78;;;17.80;99.90;;;;;;6246083;23;20023;-85
2023/06/29 00:52:27;;;;;;;10.52;7.28;;;17.80;99.90;;;;;;6246402;23;20013;-84
2023/06/29 00:54:55;;;;;;;8.63;6.13;;;17.80;99.90;;;;;;6245870;23;20080;-85
2023/06/29 00:57:21;;;;;;;12.27;6.82;;;17.80;99.90;;;;;;6246014;23;20028;-85
2023/06/29 00:59:47;;;;;;;10.80;6.97;;;17.80;99.90;;;;;;6246695;23;20016;-84
2023/06/29 01:02:15;;;;;;;9.60;6.07;;;17.80;99.90;;;;;;6218458;23;20020;-86
2023/06/29 01:04:45;;;;;;;10.05;6.78;;;17.80;99.90;;;;;;6246269;23;20024;-86
2023/06/29 01:07:35;;;;;;;9.40;6.07;;;17.80;99.90;;;;;;6219393;23;20031;-86
2023/06/29 01:10:03;;;;;;;11.07;6.90;;;17.80;99.90;;;;;;6246382;23;20024;-87
2023/06/29 01:12:29;;;;;;;10.18;6.40;;;17.80;99.90;;;;;;6218840;23;20478;-88
2023/06/29 01:14:55;;;;;;;10.07;6.80;;;17.80;99.90;;;;;;6246530;23;20024;-84
2023/06/29 01:17:25;;;;;;;9.10;6.55;;;17.80;99.90;;;;;;6219401;23;20020;-85
2023/06/29 01:19:52;;;;;;;7.78;4.93;;;17.80;99.90;;;;;;6219530;23;20103;-86
2023/06/29 01:22:24;;;;;;;9.50;6.82;;;17.80;99.90;;;;;;6245948;23;20012;-86
2023/06/29 01:24:50;;;;;;;9.50;6.72;;;17.80;99.90;;;;;;6245925;23;20020;-85
2023/06/29 01:27:16;;;;;;;10.00;7.63;;;17.80;99.90;;;;;;6218812;23;20459;-85
2023/06/29 01:29:42;;;;;;;11.50;7.78;;;17.80;99.90;;;;;;6246104;23;20024;-86
2023/06/29 01:32:09;;;;;;;11.52;7.78;;;17.80;99.90;;;;;;6246109;23;20012;-84
2023/06/29 01:34:36;;;;;;;10.15;7.07;;;17.70;99.90;;;;;;6246147;23;20023;-84
2023/06/29 01:37:14;;;;;;;9.38;6.35;;;17.80;99.90;;;;;;6218664;23;20028;-84
2023/06/29 01:39:51;;;;;;;12.05;6.80;;;17.80;99.90;;;;;;6245780;23;20051;-84
2023/06/29 01:42:19;;;;;;;10.90;7.13;;;17.80;99.90;;;;;;6245709;23;20031;-84
2023/06/29 01:44:45;;;;;;;9.45;6.47;;;17.80;99.90;;;;;;6246022;23;20039;-84
2023/06/29 01:47:12;;;;;;;12.95;7.45;;;17.80;99.90;;;;;;6244073;23;20095;-85
2023/06/29 01:49:38;;;;;;;11.32;7.50;;;17.80;99.90;;;;;;6218890;23;20031;-84
2023/06/29 01:52:05;;;;;;;11.90;7.78;;;17.70;99.90;;;;;;6245215;23;20016;-84
2023/06/29 01:54:31;;;;;;;12.13;8.57;;;17.70;99.90;;;;;;6219044;23;20024;-84
2023/06/29 01:56:57;;;;;;;10.82;7.57;;;17.70;99.90;;;;;;6245267;23;20336;-85
2023/06/29 01:59:23;;;;;;;14.48;8.70;;;17.70;99.90;;;;;;6246177;23;20021;-84
2023/06/29 02:01:49;;;;;;;8.95;6.80;;;17.70;99.90;;;;;;6246186;23;20420;-84
2023/06/29 02:04:15;;;;;;;10.45;7.72;;;17.70;99.90;;;;;;6218949;23;20016;-85
2023/06/29 02:06:40;;;;;;;11.57;6.93;;;17.70;99.90;;;;;;6193403;23;20089;-85
2023/06/29 02:09:06;;;;;;;14.60;7.53;;;17.70;99.90;;;;;;6245294;23;20020;-85
2023/06/29 02:11:32;;;;;;;11.10;7.30;;;17.70;99.90;;;;;;6218788;23;20020;-85
2023/06/29 02:13:58;;;;;;;11.70;7.80;;;17.70;99.90;;;;;;6193259;23;20024;-84
2023/06/29 02:16:23;;;;;;;12.63;8.45;;;17.70;99.90;;;;;;6245251;23;20027;-85
2023/06/29 02:18:49;;;;;;;10.38;7.57;;;17.70;99.90;;;;;;6245967;23;20016;-84
2023/06/29 02:21:15;;;;;;;9.75;6.90;;;17.70;99.90;;;;;;6245404;23;20038;-86
2023/06/29 02:23:40;;;;;;;10.65;7.57;;;17.70;99.90;;;;;;6245731;23;20024;-86
2023/06/29 02:26:06;;;;;;;14.18;8.40;;;17.70;99.90;;;;;;6245627;23;20451;-87
2023/06/29 02:28:32;;;;;;;11.68;7.65;;;17.70;99.90;;;;;;6218649;23;20034;-84
2023/06/29 02:30:57;;;;;;;11.65;7.75;;;17.70;99.90;;;;;;6245653;23;20095;-85
2023/06/29 02:33:24;;;;;;;11.23;7.97;;;17.70;99.90;;;;;;6218541;23;20027;-85
2023/06/29 02:35:49;;;;;;;12.77;8.45;;;17.70;99.90;;;;;;6218718;23;20020;-85
2023/06/29 02:38:15;;;;;;;12.07;8.45;;;17.70;99.90;;;;;;6245901;23;20022;-85
2023/06/29 02:40:41;;;;;;;12.52;8.13;;;17.70;99.90;;;;;;6218577;23;20351;-84
2023/06/29 02:43:06;;;;;;;13.23;9.10;;;17.70;99.90;;;;;;6218536;23;20031;-85
2023/06/29 02:45:32;;;;;;;12.48;8.23;;;17.70;99.90;;;;;;6244947;23;20016;-85
2023/06/29 02:47:58;;;;;;;14.55;8.85;;;17.70;99.90;;;;;;6245838;23;20024;-85
2023/06/29 02:50:23;;;;;;;13.02;8.48;;;17.70;99.90;;;;;;6245161;23;20040;-86
2023/06/29 02:52:49;;;;;;;14.95;9.43;;;17.70;99.90;;;;;;6245688;23;20013;-85
2023/06/29 02:55:15;;;;;;;14.73;8.65;;;17.70;99.90;;;;;;6246502;23;20027;-85
2023/06/29 02:57:41;;;;;;;14.07;9.27;;;17.70;99.90;;;;;;6247327;23;20082;-85
2023/06/29 03:00:08;;;;;;;15.90;10.02;;;17.70;99.90;;;;;;6220621;23;20091;-87
2023/06/29 03:02:34;;;;;;;16.05;8.85;;;17.70;99.90;;;;;;6247462;23;20024;-88
2023/06/29 03:04:59;;;;;;;13.48;9.00;;;17.70;99.90;;;;;;6247737;23;20331;-87
2023/06/29 03:07:25;;;;;;;13.68;8.70;;;17.70;99.90;;;;;;6247582;23;20024;-85
2023/06/29 03:09:51;;;;;;;12.52;8.40;;;17.70;99.90;;;;;;6220740;23;20382;-88
2023/06/29 03:12:16;;;;;;;13.80;8.68;;;17.70;99.90;;;;;;6247688;23;20090;-88
2023/06/29 03:14:42;;;;;;;13.25;8.65;;;17.70;99.90;;;;;;6220509;23;20024;-88
2023/06/29 03:17:08;;;;;;;13.63;8.63;;;17.70;99.90;;;;;;6220457;23;20028;-89
2023/06/29 03:19:34;;;;;;;14.13;9.30;;;17.80;99.90;;;;;;6220274;23;20073;-89
2023/06/29 03:21:59;;;;;;;15.10;8.98;;;17.70;99.90;;;;;;6220582;23;20057;-88
2023/06/29 03:24:25;;;;;;;12.38;8.30;;;17.70;99.90;;;;;;6219986;23;20024;-89
2023/06/29 03:26:51;;;;;;;13.68;9.38;;;17.70;99.90;;;;;;6220377;23;20034;-89
2023/06/29 03:29:16;;;;;;;13.73;8.88;;;17.80;99.90;;;;;;6247604;23;20082;-91
2023/06/29 03:31:42;;;;;;;13.02;8.13;;;17.80;99.90;;;;;;6247505;23;20020;-90
2023/06/29 03:34:08;;;;;;;13.38;8.70;;;17.80;99.90;;;;;;6220077;23;20351;-90
2023/06/29 03:36:34;;;;;;;15.70;8.95;;;17.80;99.90;;;;;;6246566;23;20044;-91
2023/06/29 03:38:59;;;;;;;13.95;8.20;;;17.80;99.90;;;;;;6247593;23;20343;-89
2023/06/29 03:41:25;;;;;;;11.85;7.50;;;17.80;99.90;;;;;;6247351;23;20031;-86
2023/06/29 03:43:51;;;;;;;13.73;8.75;;;17.80;99.90;;;;;;6247677;23;20020;-90
2023/06/29 03:46:16;;;;;;;14.30;8.27;;;17.80;99.90;;;;;;6246582;23;20047;-87
2023/06/29 03:48:42;;;;;;;13.82;8.52;;;17.80;99.90;;;;;;6220054;23;20016;-90
2023/06/29 03:51:08;;;;;;;12.77;9.07;;;17.80;99.90;;;;;;6246470;23;20023;-89
2023/06/29 03:53:33;;;;;;;12.45;8.23;;;17.90;99.90;;;;;;6246238;23;20495;-89
2023/06/29 03:55:59;;;;;;;12.15;7.97;;;17.90;99.90;;;;;;6246332;23;20024;-88
2023/06/29 03:58:25;;;;;;;13.85;8.65;;;17.90;99.90;;;;;;6246438;23;20016;-90
2023/06/29 04:00:51;;;;;;;11.65;8.38;;;17.90;99.90;;;;;;6247300;23;20020;-91
2023/06/29 04:03:16;;;;;;;10.23;7.85;;;17.90;99.90;;;;;;6247341;23;20020;-90
2023/06/29 04:05:45;;;;;;;14.27;9.48;;;18.00;99.90;;;;;;6246313;23;20040;-91
2023/06/29 04:08:10;;;;;;;13.25;8.50;;;18.10;99.90;;;;;;6246512;23;20032;-92
2023/06/29 04:10:36;;;;;;;12.02;8.30;;;18.00;99.90;;;;;;6247143;23;20031;-92
2023/06/29 04:13:02;;;;;;;14.45;8.85;;;18.00;99.90;;;;;;6219689;23;20056;-90
2023/06/29 04:15:28;;;;;;;12.60;9.00;;;18.00;99.90;;;;;;6246297;23;20079;-89
2023/06/29 04:17:53;;;;;;;11.80;7.43;;;18.00;99.90;;;;;;6220179;23;20023;-89
2023/06/29 04:20:19;;;;;;;15.48;8.52;;;18.00;99.90;;;;;;6195399;23;20051;-90
2023/06/29 04:22:45;;;;;;;12.32;8.02;;;18.10;99.90;;;;;;6219482;23;20391;-93
2023/06/29 04:25:12;;;;;;;13.18;8.48;;;18.10;99.90;;;;;;6220003;23;20058;-90
2023/06/29 04:27:37;;;;;;;11.18;7.90;;;18.10;99.90;;;;;;6219735;23;20062;-90
2023/06/29 04:30:04;;;;;;;13.38;7.63;;;18.10;99.90;;;;;;6246417;23;20012;-91
2023/06/29 04:32:30;;;;;;;12.48;8.32;;;18.20;99.90;;;;;;6247099;23;20024;-91
2023/06/29 04:34:56;;;;;;;13.68;7.78;;;18.20;99.90;;;;;;6220374;23;20026;-90
2023/06/29 04:37:22;;;;;;;11.70;7.88;;;18.20;99.90;;;;;;6246811;23;20047;-89
2023/06/29 04:39:47;;;;;;;12.60;7.57;;;18.30;99.90;;;;;;6194626;23;20055;-88
2023/06/29 04:42:14;;;;;;;13.55;8.23;;;18.30;99.90;;;;;;6219859;23;20038;-89
2023/06/29 04:44:40;;;;;;;10.32;7.13;;;18.30;99.90;;;;;;6246650;23;20048;-86
2023/06/29 04:47:06;;;;;;;12.05;6.90;;;18.40;99.90;;;;;;6219440;23;20028;-89
2023/06/29 04:49:36;;;;;;;11.05;6.70;;;18.50;99.90;;;;;;6246315;23;20335;-88
2023/06/29 04:55:43;;;;;;;17.00;7.40;;;18.60;99.90;;;;;;6245645;23;20031;-87
2023/06/29 04:58:08;;;;;;;11.02;7.45;;;18.80;99.90;;;;;;6246228;23;20335;-87
2023/06/29 05:00:34;;;;;;;12.15;7.60;;;18.80;99.90;;;;;;6219394;23;20020;-84
2023/06/29 05:03:00;;;;;;;11.40;7.05;;;18.90;99.90;;;;;;6219611;23;20024;-90
2023/06/29 05:05:26;;;;;;;10.63;7.70;;;18.90;99.90;;;;;;6219216;23;20020;-86
2023/06/29 05:07:51;;;;;;;13.15;7.50;;;19.00;99.90;;;;;;6219067;23;20024;-84
2023/06/29 05:10:17;;;;;;;11.68;8.50;;;19.10;99.90;;;;;;6246206;23;20023;-85
2023/06/29 05:12:43;;;;;;;11.85;8.40;;;19.10;99.90;;;;;;6246208;23;20502;-86
2023/06/29 05:15:09;;;;;;;13.93;8.70;;;19.10;99.90;;;;;;6245795;23;20023;-86
2023/06/29 05:17:38;;;;;;;17.73;11.77;;;19.10;99.90;;;;;;6219869;23;20021;-85
2023/06/29 05:20:05;;;;;;;15.73;8.90;;;19.10;99.90;;;;;;6219498;23;20031;-85
2023/06/29 05:22:31;;;;;;;14.38;8.18;;;19.10;99.90;;;;;;6246241;23;20012;-86
2023/06/29 05:24:57;;;;;;;15.65;9.95;;;19.20;99.90;;;;;;6246399;23;20016;-86
2023/06/29 05:27:22;;;;;;;15.65;8.77;;;19.20;99.90;;;;;;6246356;23;20312;-86
2023/06/29 05:29:50;;;;;;;17.25;10.23;;;19.10;99.90;;;;;;6245727;23;20100;-88
2023/06/29 05:32:15;;;;;;;14.27;8.95;;;19.20;99.90;;;;;;6219804;23;20020;-86
2023/06/29 05:34:41;;;;;;;17.27;10.25;;;19.20;99.90;;;;;;6218966;23;20031;-91
2023/06/29 05:37:07;;;;;;;17.38;9.27;;;19.20;99.90;;;;;;6218124;23;20083;-90
2023/06/29 05:39:32;;;;;;;19.42;11.23;;;19.20;99.90;;;;;;6193753;23;20055;-85
2023/06/29 05:41:58;;;;;;;17.27;9.80;;;19.30;99.90;;;;;;6246469;23;20340;-86
2023/06/29 05:44:24;;;;;;;13.30;8.13;;;19.30;99.90;;;;;;6218875;23;20355;-86
2023/06/29 05:46:50;;;;;;;14.07;9.70;;;19.40;99.90;;;;;;6245433;23;20601;-87
2023/06/29 05:49:15;;;;;;;12.88;7.72;;;19.50;99.90;;;;;;6245516;23;20020;-85
2023/06/29 05:51:42;;;;;;;14.75;9.68;;;19.60;99.90;;;;;;6245625;23;20078;-84
2023/06/29 05:54:08;;;;;;;13.00;9.13;;;19.60;99.90;;;;;;6218984;23;20078;-83
2023/06/29 05:56:33;;;;;;;17.17;9.40;;;19.70;99.90;;;;;;6244231;23;20060;-84
2023/06/29 05:58:59;;;;;;;18.20;11.32;;;19.70;99.90;;;;;;6218429;23;20040;-84
2023/06/29 06:01:25;;;;;;;15.45;10.02;;;19.80;99.90;;;;;;6218744;23;20062;-84
2023/06/29 06:03:51;;;;;;;13.15;8.27;;;19.80;99.90;;;;;;6193745;23;20154;-84
2023/06/29 06:06:16;;;;;;;11.93;6.93;;;19.80;99.90;;;;;;6245165;23;20020;-84
2023/06/29 06:08:42;;;;;;;14.18;7.70;;;19.80;99.90;;;;;;6218804;23;20016;-85
2023/06/29 06:11:08;;;;;;;17.63;9.77;;;19.80;99.90;;;;;;6244897;23;20324;-84
2023/06/29 06:13:33;;;;;;;17.55;9.20;;;19.90;99.90;;;;;;6217918;23;20016;-84
2023/06/29 06:15:59;;;;;;;15.75;10.00;;;20.00;99.90;;;;;;6244605;23;20024;-84
2023/06/29 06:18:25;;;;;;;16.23;10.10;;;20.00;99.90;;;;;;6245582;23;20098;-83
2023/06/29 06:20:51;;;;;;;12.90;8.48;;;20.10;99.90;;;;;;6245633;23;20031;-84
2023/06/29 06:23:17;;;;;;;14.90;7.90;;;20.20;99.90;;;;;;6245164;23;20012;-84
2023/06/29 06:25:42;;;;;;;17.63;8.10;;;20.30;99.90;;;;;;6218415;23;20455;-84
2023/06/29 06:28:08;;;;;;;15.77;7.70;;;20.40;99.90;;;;;;6218197;23;20016;-83
2023/06/29 06:30:34;;;;;;;10.45;6.57;;;20.50;99.90;;;;;;6247225;23;20020;-86
2023/06/29 06:33:01;;;;;;;10.52;7.10;;;20.60;99.90;;;;;;6195674;23;20108;-85
2023/06/29 06:35:28;;;;;;;19.80;9.52;;;20.60;99.90;;;;;;6220715;23;20024;-84
2023/06/29 06:37:54;;;;;;;11.57;7.20;;;20.60;99.90;;;;;;6247010;23;20016;-84
2023/06/29 06:40:20;;;;;;;17.92;9.63;;;20.70;99.90;;;;;;6247463;23;20032;-85
2023/06/29 06:42:46;;;;;;;14.52;9.02;;;20.70;99.90;;;;;;6220658;23;20021;-85
2023/06/29 06:45:13;;;;;;;16.92;8.63;;;20.70;99.90;;;;;;6220328;23;20034;-87
2023/06/29 06:47:39;;;;;;;14.45;7.93;;;20.70;99.90;;;;;;6220221;23;20024;-85
2023/06/29 06:50:06;;;;;;;13.23;7.45;;;20.70;99.90;;;;;;6219771;23;20024;-82
2023/06/29 06:52:32;;;;;;;10.85;6.43;;;20.80;99.90;;;;;;6247217;23;20450;-83
2023/06/29 06:54:57;;;;;;;13.45;8.52;;;20.80;99.90;;;;;;6247362;23;20023;-82
2023/06/29 06:57:23;;;;;;;13.68;9.10;;;20.90;99.90;;;;;;6214836;23;20020;-83
2023/06/29 06:59:49;;;;;;;18.00;9.57;;;20.90;99.90;;;;;;6217371;23;20021;-83
2023/06/29 07:02:15;;;;;;;14.93;8.50;;;20.80;99.90;;;;;;6190612;23;20078;-84
2023/06/29 07:04:40;;;;;;;13.90;8.10;;;20.90;99.90;;;;;;6216906;23;20028;-82
2023/06/29 07:07:07;;;;;;;14.55;8.35;;;20.90;99.90;;;;;;6190127;23;20040;-82
2023/06/29 07:09:33;;;;;;;14.60;8.85;;;21.00;99.90;;;;;;6216918;23;20024;-83
2023/06/29 07:11:59;;;;;;;14.60;7.88;;;21.00;99.90;;;;;;6190329;23;20079;-83
2023/06/29 07:14:25;;;;;;;16.20;9.68;;;21.00;99.90;;;;;;6190131;23;20402;-82
2023/06/29 07:16:51;;;;;;;20.55;10.80;;;21.10;99.90;;;;;;6216527;23;20115;-83
2023/06/29 07:19:17;;;;;;;16.75;9.88;;;21.10;99.90;;;;;;6218874;23;20017;-84
2023/06/29 07:21:43;;;;;;;15.43;9.75;;;21.10;99.90;;;;;;6218692;23;20143;-84
2023/06/29 07:24:09;;;;;;;12.98;7.72;;;21.10;99.90;;;;;;6190818;23;20571;-84
2023/06/29 07:26:36;;;;;;;15.32;7.53;;;21.20;99.90;;;;;;6190785;23;20413;-87
2023/06/29 07:29:07;;;;;;;16.55;8.90;;;21.20;99.90;;;;;;6166241;23;20056;-83
2023/06/29 07:31:34;;;;;;;12.00;7.30;;;21.20;99.90;;;;;;6217237;23;20020;-83
2023/06/29 07:33:59;;;;;;;14.23;8.20;;;21.20;99.90;;;;;;6216913;23;20048;-83
2023/06/29 07:36:26;;;;;;;13.07;7.95;;;21.20;99.90;;;;;;6165461;23;20027;-84
2023/06/29 07:38:52;;;;;;;15.90;9.20;;;21.30;99.90;;;;;;6190839;23;20347;-84
2023/06/29 07:41:19;;;;;;;12.27;6.90;;;21.30;99.90;;;;;;6217046;23;20017;-84
2023/06/29 07:43:54;;;;;;;12.93;7.13;;;21.30;99.90;;;;;;6217431;23;20016;-84
2023/06/29 07:46:19;;;;;;;14.93;7.50;;;21.40;99.90;;;;;;6216989;23;20031;-84
2023/06/29 07:48:49;;;;;;;15.57;8.27;;;21.40;99.90;;;;;;6217947;23;20025;-85
2023/06/29 07:51:16;;;;;;;15.23;8.10;;;21.40;99.90;;;;;;6217799;23;20024;-83
2023/06/29 07:53:43;;;;;;;12.82;7.15;;;21.30;99.90;;;;;;6217777;23;20028;-84
2023/06/29 07:56:09;;;;;;;16.38;8.18;;;21.30;99.90;;;;;;6228616;23;20020;-85
2023/06/29 07:58:36;;;;;;;14.40;7.47;;;21.30;99.90;;;;;;6220965;23;20020;-84
2023/06/29 08:01:02;;;;;;;15.10;8.38;;;21.30;99.90;;;;;;6247675;23;20331;-84
2023/06/29 08:03:28;;;;;;;13.82;8.30;;;21.30;99.90;;;;;;6248000;23;20016;-84
2023/06/29 08:05:54;;;;;;;15.55;9.52;;;21.30;99.90;;;;;;6247790;23;20039;-83
2023/06/29 08:08:23;;;;;;;14.30;9.40;;;21.40;99.90;;;;;;6220955;23;20020;-84
2023/06/29 08:10:49;;;;;;;18.90;10.88;;;21.50;99.90;;;;;;6247340;23;20024;-85
2023/06/29 08:13:15;;;;;;;14.02;7.60;;;21.40;99.90;;;;;;6247244;23;20078;-85
2023/06/29 08:15:41;;;;;;;11.25;7.13;;;21.40;99.90;;;;;;6220263;23;20058;-86
2023/06/29 08:18:07;;;;;;;10.98;6.18;;;21.50;99.90;;;;;;6220115;23;20016;-84
2023/06/29 08:20:32;;;;;;;14.27;8.95;;;21.50;99.90;;;;;;6221051;23;20016;-84
2023/06/29 08:22:58;;;;;;;14.40;9.52;;;21.60;99.90;;;;;;6247512;23;20090;-86
2023/06/29 08:25:24;;;;;;;14.40;8.55;;;21.60;99.90;;;;;;6220614;23;20335;-85
2023/06/29 08:27:50;;;;;;;14.68;8.80;;;21.70;99.90;;;;;;6220417;23;20049;-85
2023/06/29 08:30:16;;;;;;;13.48;8.57;;;21.70;99.90;;;;;;6220986;23;20020;-84
2023/06/29 08:32:43;;;;;;;15.70;9.27;;;21.80;99.90;;;;;;6248254;23;20019;-84
2023/06/29 08:35:08;;;;;;;17.90;8.95;;;21.90;99.90;;;;;;6248847;23;20016;-84
2023/06/29 08:37:34;;;;;;;17.98;11.25;;;21.90;99.90;;;;;;6248145;23;20113;-85
2023/06/29 08:40:00;;;;;;;17.02;9.75;;;22.00;99.90;;;;;;6221043;23;20052;-85
2023/06/29 08:42:27;;;;;;;16.98;10.45;;;22.00;99.90;;;;;;6222802;23;20024;-85
2023/06/29 08:44:53;;;;;;;14.68;9.25;;;22.00;99.90;;;;;;6250954;23;20020;-85
2023/06/29 08:47:19;;;;;;;14.55;8.23;;;22.10;99.90;;;;;;6225716;23;20097;-84
2023/06/29 08:49:46;;;;;;;16.95;9.32;;;22.10;99.90;;;;;;6220827;23;20133;-87
2023/06/29 08:52:16;;;;;;;14.75;8.55;;;22.30;99.90;;;;;;6222345;23;20016;-87
2023/06/29 08:54:42;;;;;;;13.48;7.72;;;22.30;99.90;;;;;;6220655;23;20020;-84
2023/06/29 08:57:09;;;;;;;14.95;8.00;;;22.40;99.90;;;;;;6222828;23;20024;-84
2023/06/29 08:59:37;;;;;;;12.98;7.40;;;22.50;99.90;;;;;;6221864;23;20474;-86
2023/06/29 09:02:08;;;;;;;14.48;8.57;;;22.40;99.90;;;;;;6247933;23;20028;-85
2023/06/29 09:04:33;;;;;;;14.18;8.70;;;22.50;99.90;;;;;;6220971;23;20052;-84
2023/06/29 09:10:46;;;;;;;17.00;9.70;;;22.50;99.90;;;;;;6247997;23;20031;-85
2023/06/29 09:13:13;;;;;;;13.60;8.25;;;22.50;99.90;;;;;;6221186;23;20054;-84
2023/06/29 09:15:40;;;;;;;15.88;8.55;;;22.50;99.90;;;;;;6247066;23;20027;-84
2023/06/29 09:18:07;;;;;;;17.77;9.25;;;22.50;99.90;;;;;;6219773;23;20020;-84
2023/06/29 09:20:34;;;;;;;16.63;9.10;;;22.60;99.90;;;;;;6219798;23;20020;-84
2023/06/29 09:23:04;;;;;;;15.50;8.93;;;22.50;99.90;;;;;;6219312;23;20020;-84
2023/06/29 09:25:32;;;;;;;13.25;8.18;;;22.50;99.90;;;;;;6219778;23;20051;-84
2023/06/29 09:28:02;;;;;;;13.10;7.55;;;22.60;99.90;;;;;;6219440;23;20025;-84
2023/06/29 09:30:40;;;;;;;13.30;7.45;;;22.70;99.90;;;;;;6245065;23;20089;-84
2023/06/29 09:33:11;;;;;;;12.98;8.63;;;22.70;99.90;;;;;;6246782;23;20099;-84
2023/06/29 09:35:39;;;;;;;19.13;10.93;;;22.70;99.90;;;;;;6218943;23;20469;-85
2023/06/29 09:38:05;;;;;;;14.77;8.77;;;22.70;99.90;;;;;;6219733;23;20098;-83
2023/06/29 09:40:30;;;;;;;14.52;8.52;;;22.70;99.90;;;;;;6219235;23;20043;-84
2023/06/29 09:42:57;;;;;;;12.60;7.38;;;22.80;99.90;;;;;;6246334;23;20027;-83
2023/06/29 09:45:28;;;;;;;15.57;8.65;;;23.00;99.90;;;;;;6244443;23;20061;-85
2023/06/29 09:47:54;;;;;;;15.07;9.13;;;23.10;99.90;;;;;;6219266;23;20451;-84
2023/06/29 09:50:21;;;;;;;15.07;8.30;;;23.10;99.90;;;;;;6218814;23;20031;-84
2023/06/29 09:52:50;;;;;;;17.13;9.52;;;23.00;99.90;;;;;;6245582;23;20051;-87
2023/06/29 09:55:17;;;;;;;13.80;8.32;;;22.90;99.90;;;;;;6218781;23;20442;-84
2023/06/29 09:57:45;;;;;;;19.08;11.13;;;22.80;99.90;;;;;;6245869;23;20031;-85
2023/06/29 10:00:13;;;;;;;17.27;9.50;;;22.70;99.90;;;;;;6245970;23;20334;-84
2023/06/29 10:02:42;;;;;;;13.43;8.93;;;22.70;99.90;;;;;;6218598;23;20024;-86
2023/06/29 10:05:09;;;;;;;14.65;8.98;;;22.70;99.90;;;;;;6245548;23;20515;-84
2023/06/29 10:07:37;;;;;;;15.23;9.80;;;22.80;99.90;;;;;;6218080;23;20028;-85
2023/06/29 10:10:06;;;;;;;15.77;9.40;;;22.80;99.90;;;;;;6218618;23;20030;-84
2023/06/29 10:12:35;;;;;;;15.50;9.88;;;22.80;99.90;;;;;;6219152;23;20016;-83
2023/06/29 10:15:09;;;;;;;14.95;9.35;;;22.70;99.90;;;;;;6245736;23;20016;-85
2023/06/29 10:17:43;;;;;;;18.92;11.52;;;22.60;99.90;;;;;;6245847;23;20016;-83
2023/06/29 10:20:11;;;;;;;20.00;11.40;;;22.60;99.90;;;;;;6245802;23;20016;-87
2023/06/29 10:22:38;;;;;;;16.58;11.38;;;22.50;99.90;;;;;;6245694;23;20518;-84
2023/06/29 10:25:09;;;;;;;13.95;8.55;;;22.40;99.90;;;;;;6219156;23;20020;-84
2023/06/29 10:27:35;;;;;;;15.68;8.82;;;22.30;99.90;;;;;;6245847;23;20324;-86
2023/06/29 10:30:05;;;;;;;16.60;8.95;;;22.20;99.90;;;;;;6245463;23;20106;-84
2023/06/29 10:32:31;;;;;;;14.77;8.73;;;22.20;99.90;;;;;;6245194;23;20020;-84
2023/06/29 10:35:13;;;;;;;16.58;8.57;;;22.10;99.90;;;;;;6245659;23;20028;-85
2023/06/29 10:37:49;;;;;;;15.60;10.07;;;22.10;99.90;;;;;;6218567;23;20021;-84
2023/06/29 10:40:21;;;;;;;18.20;10.35;;;22.10;99.90;;;;;;6245453;23;20097;-84
2023/06/29 10:42:49;;;;;;;19.52;10.68;;;22.00;99.90;;;;;;6218934;23;20020;-85
2023/06/29 10:45:17;;;;;;;18.92;11.15;;;22.00;99.90;;;;;;6218888;23;20035;-84
2023/06/29 10:47:44;;;;;;;16.13;8.90;;;21.80;99.90;;;;;;6245467;23;20451;-83
2023/06/29 10:50:13;;;;;;;21.10;12.57;;;21.90;99.90;;;;;;6244672;23;20509;-85
2023/06/29 10:52:42;;;;;;;20.00;11.73;;;21.70;99.90;;;;;;6219372;23;20364;-85
2023/06/29 10:55:22;;;;;;;17.45;10.70;;;21.50;99.90;;;;;;6219567;23;20017;-86
2023/06/29 10:57:51;;;;;;;22.67;13.07;;;21.40;99.90;;;;;;6220056;23;20099;-84
2023/06/29 11:00:18;;;;;;;20.40;13.50;;;21.10;99.90;;;;;;6249049;23;20043;-84
2023/06/29 11:02:46;;;;;;;17.70;10.85;;;21.00;99.90;;;;;;6222437;23;20054;-84
2023/06/29 11:05:16;;;;;;;20.52;12.15;;;21.00;99.90;;;;;;6247667;23;20031;-85
2023/06/29 11:07:48;;;;;;;19.10;11.43;;;21.10;99.90;;;;;;6247921;23;20027;-86
2023/06/29 11:10:13;;;;;;;18.75;10.30;;;21.10;99.90;;;;;;6222702;23;20767;-87
2023/06/29 11:12:40;;;;;;;14.35;8.63;;;21.10;99.90;;;;;;6220877;23;20016;-85
2023/06/29 11:15:17;;;;;;;15.50;9.77;;;21.20;99.90;;;;;;6248065;23;20026;-84
2023/06/29 11:17:44;;;;;;;17.25;10.20;;;21.30;99.90;;;;;;6220829;23;20030;-85
2023/06/29 11:20:14;;;;;;;16.65;10.02;;;21.40;99.90;;;;;;6221761;23;20024;-83
2023/06/29 11:22:44;;;;;;;16.25;9.43;;;21.50;99.90;;;;;;6253858;23;20057;-84
2023/06/29 11:25:14;;;;;;;13.20;8.68;;;21.70;99.90;;;;;;6223907;23;20020;-85
2023/06/29 11:27:44;;;;;;;16.98;10.55;;;21.80;99.90;;;;;;6251953;23;20070;-83
2023/06/29 11:30:11;;;;;;;15.52;10.45;;;21.90;99.90;;;;;;6229600;23;20327;-85
2023/06/29 11:32:37;;;;;;;18.77;11.05;;;22.00;99.90;;;;;;6230725;23;20024;-85
2023/06/29 11:35:05;;;;;;;17.90;11.90;;;22.10;99.90;;;;;;6203534;23;20031;-84
2023/06/29 11:37:32;;;;;;;16.88;9.48;;;22.00;99.90;;;;;;6229328;23;20028;-84
2023/06/29 11:39:58;;;;;;;16.52;11.00;;;22.10;99.90;;;;;;6254790;23;20016;-83
2023/06/29 11:42:24;;;;;;;19.35;12.88;;;22.10;99.90;;;;;;6254234;23;20470;-86
2023/06/29 11:45:02;;;;;;;19.65;11.15;;;22.00;99.90;;;;;;6253248;23;20031;-86
2023/06/29 11:47:29;;;;;;;16.25;9.60;;;21.90;99.90;;;;;;6225982;23;20031;-85
2023/06/29 11:50:03;;;;;;;19.65;11.50;;;21.90;99.90;;;;;;6250330;23;20146;-86
2023/06/29 11:52:30;;;;;;;15.98;10.00;;;21.90;99.90;;;;;;6245603;23;20474;-85
2023/06/29 11:55:00;;;;;;;16.35;9.85;;;21.90;99.90;;;;;;6246941;23;20070;-85
2023/06/29 11:57:26;;;;;;;21.25;13.07;;;21.90;99.90;;;;;;6194034;23;20024;-87
2023/06/29 11:59:52;;;;;;;17.33;11.25;;;22.00;99.90;;;;;;6220691;23;20024;-86
2023/06/29 12:02:19;;;;;;;21.88;13.40;;;22.10;99.90;;;;;;6246693;23;20068;-86
2023/06/29 12:04:58;;;;;;;21.00;12.73;;;22.20;99.90;;;;;;6219552;23;20028;-86
2023/06/29 12:07:41;;;;;;;22.92;13.13;;;22.40;99.90;;;;;;6222107;23;20020;-86
2023/06/29 12:10:12;;;;;;;18.02;11.68;;;22.50;99.90;;;;;;6194308;23;20024;-86
2023/06/29 12:12:43;;;;;;;24.65;15.10;;;22.70;99.90;;;;;;6219195;23;20020;-85
2023/06/29 12:15:26;;;;;;;22.98;13.55;;;22.70;99.90;;;;;;6246355;23;20038;-85
2023/06/29 12:17:53;;;;;;;17.60;11.25;;;22.80;99.90;;;;;;6219668;23;20086;-86
2023/06/29 12:20:25;;;;;;;21.33;13.52;;;23.00;99.90;;;;;;6246014;23;20027;-87
2023/06/29 12:26:32;;;;;;;22.23;13.82;;;23.50;99.90;;;;;;6245672;23;20150;-85
2023/06/29 12:28:58;;;;;;;27.73;15.65;;;23.30;99.90;;;;;;6245998;23;20012;-86
2023/06/29 12:31:33;;;;;;;29.42;17.73;;;23.20;99.90;;;;;;6246808;23;20020;-86
2023/06/29 12:33:59;;;;;;;26.10;15.25;;;23.30;99.90;;;;;;6219288;23;20102;-85
2023/06/29 12:36:25;;;;;;;20.05;12.20;;;23.30;99.90;;;;;;6220131;23;20058;-86
2023/06/29 12:38:51;;;;;;;26.13;15.85;;;23.50;99.90;;;;;;6219421;23;20078;-86
2023/06/29 12:41:17;;;;;;;23.50;14.10;;;23.70;99.90;;;;;;6246226;23;20024;-85
2023/06/29 12:43:43;;;;;;;24.90;15.18;;;24.00;99.90;;;;;;6219703;23;20024;-86
2023/06/29 12:46:10;;;;;;;32.20;18.65;;;24.40;99.90;;;;;;6246265;23;20016;-86